Time;durP1;ratioP1;P1;durP2;ratioP2;P2;SDS_P1;SDS_P2;PMS_P1;PMS_P2;Temp;Humidity;BMP_temperature;BMP_pressure;BME280_temperature;BME280_humidity;BME280_pressure;Samples;Min_cycle;Max_cycle;Signal;HPM_P1;HPM_P2
2024/02/13 00:00:09;;;;;;;;;35.67;31.33;;;;;-147.14;100.00;58812.66;5056290;28;47018;-48
2024/02/13 00:02:34;;;;;;;;;27.67;26.67;;;;;-147.14;100.00;58812.66;5047097;28;45517;-46
2024/02/13 00:04:59;;;;;;;;;24.67;23.67;;;;;-147.14;100.00;58812.66;5059119;28;45197;-47
2024/02/13 00:07:25;;;;;;;;;32.67;30.00;;;;;-147.14;100.00;58812.66;5055805;28;68346;-47
2024/02/13 00:09:51;;;;;;;;;34.00;30.33;;;;;-147.14;100.00;58812.66;5047566;28;75623;-49
2024/02/13 00:12:17;;;;;;;;;44.33;36.00;;;;;-147.14;100.00;58812.66;5041894;28;45312;-44
2024/02/13 00:14:44;;;;;;;;;42.33;32.67;;;;;-147.14;100.00;58812.66;5042095;28;45293;-46
2024/02/13 00:17:10;;;;;;;;;29.67;27.33;;;;;-147.14;100.00;58812.66;5046923;28;45565;-45
2024/02/13 00:19:35;;;;;;;;;36.67;33.00;;;;;-147.14;100.00;58812.66;5057637;28;46303;-47
2024/02/13 00:22:00;;;;;;;;;37.67;34.67;;;;;-147.14;100.00;58812.66;5041148;28;55654;-46
2024/02/13 00:24:26;;;;;;;;;34.67;32.33;;;;;-147.14;100.00;58812.66;5049809;28;54855;-46
2024/02/13 00:26:52;;;;;;;;;39.67;36.33;;;;;-147.14;100.00;58812.66;5047073;28;53659;-43
2024/02/13 00:29:18;;;;;;;;;29.67;27.00;;;;;-147.14;100.00;58812.66;5057202;28;46135;-44
2024/02/13 00:31:44;;;;;;;;;41.75;33.75;;;;;-147.14;100.00;58812.66;5057243;28;45401;-50
2024/02/13 00:34:09;;;;;;;;;36.67;34.67;;;;;-147.14;100.00;58812.66;5057085;28;69135;-45
2024/02/13 00:36:34;;;;;;;;;36.67;30.33;;;;;-147.14;100.00;58812.66;5052731;28;69163;-46
2024/02/13 00:39:00;;;;;;;;;40.00;36.00;;;;;-147.14;100.00;58812.66;5050065;28;72701;-44
2024/02/13 00:41:26;;;;;;;;;38.33;33.67;;;;;-147.14;100.00;58812.66;5056143;28;45814;-47
2024/02/13 00:43:51;;;;;;;;;35.00;26.67;;;;;-147.14;100.00;58812.66;5056165;28;45617;-46
2024/02/13 00:46:16;;;;;;;;;33.00;27.67;;;;;-147.14;100.00;58812.66;5040423;28;70467;-48
2024/02/13 00:48:42;;;;;;;;;30.67;23.33;;;;;-147.14;100.00;58812.66;5051140;28;45337;-45
2024/02/13 00:51:07;;;;;;;;;34.67;34.00;;;;;-147.14;100.00;58812.66;5043760;28;45547;-46
2024/02/13 00:53:33;;;;;;;;;33.67;27.00;;;;;-147.14;100.00;58812.66;5042013;28;45473;-44
2024/02/13 00:56:00;;;;;;;;;32.25;30.25;;;;;-147.14;100.00;58812.66;5041602;28;45408;-44
2024/02/13 00:58:26;;;;;;;;;34.00;28.67;;;;;-147.14;100.00;58812.66;5038735;28;46059;-45
2024/02/13 01:00:53;;;;;;;;;31.33;27.33;;;;;-147.14;100.00;58812.66;5044986;28;45352;-44
2024/02/13 01:03:19;;;;;;;;;33.67;30.67;;;;;-147.14;100.00;58812.66;5040931;28;45304;-48
2024/02/13 01:05:44;;;;;;;;;32.00;26.00;;;;;-147.14;100.00;58812.66;5037739;28;45426;-46
2024/02/13 01:08:12;;;;;;;;;30.33;28.33;;;;;-147.14;100.00;58812.66;5051199;28;45536;-45
2024/02/13 01:10:38;;;;;;;;;35.67;29.33;;;;;-147.14;100.00;58812.66;5056887;28;45415;-47
2024/02/13 01:13:03;;;;;;;;;32.00;25.67;;;;;-147.14;100.00;58812.66;5056197;28;68215;-47
2024/02/13 01:15:29;;;;;;;;;35.25;28.25;;;;;-147.14;100.00;58812.66;5041718;28;45416;-48
2024/02/13 01:17:54;;;;;;;;;30.67;25.33;;;;;-147.14;100.00;58812.66;5037705;28;61907;-46
2024/02/13 01:20:20;;;;;;;;;30.50;27.75;;;;;-147.14;100.00;58812.66;5038151;28;72052;-44
2024/02/13 01:22:46;;;;;;;;;31.33;28.67;;;;;-147.14;100.00;58812.66;5041422;28;45414;-49
2024/02/13 01:25:13;;;;;;;;;31.00;25.67;;;;;-147.14;100.00;58812.66;5052031;28;45246;-48
2024/02/13 01:27:40;;;;;;;;;34.33;30.00;;;;;-147.14;100.00;58812.66;5050938;28;46033;-47
2024/02/13 01:30:09;;;;;;;;;25.00;22.33;;;;;-147.14;100.00;58812.66;5056800;28;45396;-48
2024/02/13 01:32:35;;;;;;;;;34.67;32.33;;;;;-147.14;100.00;58812.66;5041000;28;45241;-47
2024/02/13 01:35:01;;;;;;;;;27.00;24.00;;;;;-147.14;100.00;58812.66;5053636;28;45620;-47
2024/02/13 01:37:26;;;;;;;;;27.33;27.00;;;;;-147.14;100.00;58812.66;5051378;28;46058;-44
2024/02/13 01:39:53;;;;;;;;;35.67;31.33;;;;;-147.14;100.00;58812.66;5055400;28;73274;-47
2024/02/13 01:42:19;;;;;;;;;27.67;25.67;;;;;-147.14;100.00;58812.66;5056484;28;45589;-46
2024/02/13 01:44:44;;;;;;;;;34.00;27.33;;;;;-147.14;100.00;58812.66;5050272;28;70378;-47
2024/02/13 01:47:11;;;;;;;;;39.00;32.00;;;;;-147.14;100.00;58812.66;5038783;28;73865;-49
2024/02/13 01:49:36;;;;;;;;;36.67;34.00;;;;;-147.14;100.00;58812.66;5041631;28;45680;-44
2024/02/13 01:52:03;;;;;;;;;43.33;35.33;;;;;-147.14;100.00;58812.66;5050539;28;61203;-47
2024/02/13 01:54:30;;;;;;;;;33.00;28.00;;;;;-147.14;100.00;58812.66;5054296;28;45660;-48
2024/02/13 01:56:55;;;;;;;;;38.00;31.67;;;;;-147.14;100.00;58812.66;5028814;28;46307;-47
2024/02/13 01:59:22;;;;;;;;;32.33;28.33;;;;;-147.14;100.00;58812.66;5053598;28;73840;-48
2024/02/13 02:01:47;;;;;;;;;33.33;31.33;;;;;-147.14;100.00;58812.66;5050687;28;45265;-45
2024/02/13 02:04:13;;;;;;;;;37.67;31.67;;;;;-147.14;100.00;58812.66;5039736;28;45324;-48
2024/02/13 02:06:41;;;;;;;;;34.33;31.67;;;;;-147.14;100.00;58812.66;5028073;28;45892;-45
2024/02/13 02:09:07;;;;;;;;;38.00;34.33;;;;;-147.14;100.00;58812.66;5040143;28;45293;-44
2024/02/13 02:11:33;;;;;;;;;35.67;29.67;;;;;-147.14;100.00;58812.66;5040801;28;45406;-48
2024/02/13 02:14:00;;;;;;;;;35.00;29.00;;;;;-147.14;100.00;58812.66;5051400;28;45280;-45
2024/02/13 02:16:27;;;;;;;;;42.67;34.67;;;;;-147.14;100.00;58812.66;5040264;28;47159;-44
2024/02/13 02:18:53;;;;;;;;;29.67;28.33;;;;;-147.14;100.00;58812.66;5046945;28;45363;-45
2024/02/13 02:21:19;;;;;;;;;36.00;30.67;;;;;-147.14;100.00;58812.66;5045671;28;45417;-47
2024/02/13 02:23:44;;;;;;;;;33.00;25.67;;;;;-147.14;100.00;58812.66;5039951;28;45217;-45
2024/02/13 02:26:10;;;;;;;;;30.67;29.33;;;;;-147.14;100.00;58812.66;5037436;28;75696;-44
2024/02/13 02:28:35;;;;;;;;;39.00;31.67;;;;;-147.14;100.00;58812.66;5056647;28;45275;-49
2024/02/13 02:31:01;;;;;;;;;40.67;34.67;;;;;-147.14;100.00;58812.66;5038763;28;46188;-46
2024/02/13 02:33:26;;;;;;;;;35.67;28.67;;;;;-147.14;100.00;58812.66;5054963;28;68026;-49
2024/02/13 02:35:52;;;;;;;;;35.00;30.33;;;;;-147.14;100.00;58812.66;5055776;28;73002;-45
2024/02/13 02:38:18;;;;;;;;;33.00;29.00;;;;;-147.14;100.00;58812.66;5040389;28;45254;-44
2024/02/13 02:40:44;;;;;;;;;31.50;30.25;;;;;-147.14;100.00;58812.66;5050991;28;45427;-46
2024/02/13 02:43:09;;;;;;;;;39.00;33.25;;;;;-147.14;100.00;58812.66;5056150;28;45494;-49
2024/02/13 02:45:34;;;;;;;;;45.00;34.33;;;;;-147.14;100.00;58812.66;5044779;28;71660;-45
2024/02/13 02:48:00;;;;;;;;;30.00;26.33;;;;;-147.14;100.00;58812.66;5043984;28;45420;-48
2024/02/13 02:50:25;;;;;;;;;28.00;27.33;;;;;-147.14;100.00;58812.66;5057799;28;45390;-46
2024/02/13 02:52:51;;;;;;;;;32.25;29.50;;;;;-147.14;100.00;58812.66;5039014;28;70501;-47
2024/02/13 02:55:21;;;;;;;;;30.33;30.33;;;;;-147.14;100.00;58812.66;5038640;28;46273;-45
2024/02/13 02:57:46;;;;;;;;;38.25;33.25;;;;;-147.14;100.00;58812.66;5056951;28;45308;-44
2024/02/13 03:00:14;;;;;;;;;31.67;28.00;;;;;-147.14;100.00;58812.66;5030174;28;70630;-51
2024/02/13 03:02:40;;;;;;;;;36.67;28.33;;;;;-147.14;100.00;58812.66;5051709;28;45641;-46
2024/02/13 03:05:07;;;;;;;;;34.00;31.00;;;;;-147.14;100.00;58812.66;5038758;28;46160;-47
2024/02/13 03:07:33;;;;;;;;;40.00;34.33;;;;;-147.14;100.00;58812.66;5045012;28;45411;-49
2024/02/13 03:09:59;;;;;;;;;33.67;29.33;;;;;-147.14;100.00;58812.66;5027270;28;45266;-46
2024/02/13 03:12:24;;;;;;;;;34.33;30.00;;;;;-147.14;100.00;58812.66;5044540;28;45332;-48
2024/02/13 03:14:50;;;;;;;;;35.33;30.67;;;;;-147.14;100.00;58812.66;5044784;28;45530;-49
2024/02/13 03:17:21;;;;;;;;;31.67;28.33;;;;;-147.14;100.00;58812.66;5037980;28;45303;-46
2024/02/13 03:19:46;;;;;;;;;30.33;24.33;;;;;-147.14;100.00;58812.66;5037807;28;45305;-45
2024/02/13 03:22:12;;;;;;;;;37.33;29.33;;;;;-147.14;100.00;58812.66;5039322;28;45241;-49
2024/02/13 03:24:37;;;;;;;;;35.00;31.67;;;;;-147.14;100.00;58812.66;5042278;28;46250;-46
2024/02/13 03:27:02;;;;;;;;;36.67;31.00;;;;;-147.14;100.00;58812.66;5058804;28;73456;-47
2024/02/13 03:29:28;;;;;;;;;28.00;26.67;;;;;-147.14;100.00;58812.66;5046583;28;45645;-44
2024/02/13 03:31:54;;;;;;;;;38.00;30.67;;;;;-147.14;100.00;58812.66;5058499;28;68307;-47
2024/02/13 03:34:20;;;;;;;;;35.33;33.33;;;;;-147.14;100.00;58812.66;5057057;28;46165;-48
2024/02/13 03:36:45;;;;;;;;;33.67;32.33;;;;;-147.14;100.00;58812.66;5048252;28;45528;-46
2024/02/13 03:39:10;;;;;;;;;42.25;35.00;;;;;-147.14;100.00;58812.66;5056851;28;61135;-48
2024/02/13 03:41:48;;;;;;;;;30.67;30.33;;;;;-147.14;100.00;58812.66;5058936;28;45411;-46
2024/02/13 03:44:13;;;;;;;;;35.67;30.33;;;;;-147.14;100.00;58812.66;5055955;28;45431;-49
2024/02/13 03:46:40;;;;;;;;;34.67;33.67;;;;;-147.14;100.00;58812.66;5041654;28;45511;-44
2024/02/13 03:49:08;;;;;;;;;32.67;29.33;;;;;-147.14;100.00;58812.66;5042250;28;45395;-44
2024/02/13 03:51:37;;;;;;;;;32.67;29.33;;;;;-147.14;100.00;58812.66;5060492;28;45456;-48
2024/02/13 03:54:04;;;;;;;;;34.33;31.33;;;;;-147.14;100.00;58812.66;5049748;28;45998;-46
2024/02/13 03:56:29;;;;;;;;;21.67;21.67;;;;;-147.14;100.00;58812.66;5059351;28;45327;-47
2024/02/13 03:58:55;;;;;;;;;36.33;31.33;;;;;-147.14;100.00;58812.66;5057094;28;68994;-45
2024/02/13 04:01:20;;;;;;;;;33.00;27.67;;;;;-147.14;100.00;58812.66;5049707;28;45332;-50
2024/02/13 04:03:45;;;;;;;;;28.67;24.67;;;;;-147.14;100.00;58812.66;5042218;28;46114;-47
2024/02/13 04:06:11;;;;;;;;;32.00;29.00;;;;;-147.14;100.00;58812.66;5031575;28;73110;-48
2024/02/13 04:08:39;;;;;;;;;32.00;28.00;;;;;-147.14;100.00;58812.66;5058115;28;45527;-47
2024/02/13 04:11:04;;;;;;;;;31.33;27.33;;;;;-147.14;100.00;58812.66;5041599;28;45556;-46
2024/02/13 04:13:29;;;;;;;;;31.33;27.33;;;;;-147.14;100.00;58812.66;5041684;28;45580;-47
2024/02/13 04:15:55;;;;;;;;;31.00;25.00;;;;;-147.14;100.00;58812.66;5041330;28;45322;-49
2024/02/13 04:18:20;;;;;;;;;27.33;25.33;;;;;-147.14;100.00;58812.66;5028252;28;69326;-49
2024/02/13 04:20:45;;;;;;;;;29.00;24.33;;;;;-147.14;100.00;58812.66;5058990;28;45319;-46
2024/02/13 04:23:11;;;;;;;;;27.00;22.67;;;;;-147.14;100.00;58812.66;5045326;28;54554;-46
2024/02/13 04:25:36;;;;;;;;;32.33;27.33;;;;;-147.14;100.00;58812.66;5041317;28;66328;-44
2024/02/13 04:28:03;;;;;;;;;35.67;27.67;;;;;-147.14;100.00;58812.66;5037308;28;45227;-50
2024/02/13 04:30:28;;;;;;;;;26.67;23.33;;;;;-147.14;100.00;58812.66;5059260;28;45447;-47
2024/02/13 04:32:53;;;;;;;;;32.67;26.67;;;;;-147.14;100.00;58812.66;5056990;28;74962;-48
2024/02/13 04:35:18;;;;;;;;;27.67;24.00;;;;;-147.14;100.00;58812.66;5056929;28;72295;-51
2024/02/13 04:37:44;;;;;;;;;32.00;27.67;;;;;-147.14;100.00;58812.66;5039969;28;68072;-49
2024/02/13 04:40:10;;;;;;;;;31.33;28.00;;;;;-147.14;100.00;58812.66;5056181;28;70563;-45
2024/02/13 04:42:36;;;;;;;;;31.00;26.67;;;;;-147.14;100.00;58812.66;5056652;28;46333;-44
2024/02/13 04:45:02;;;;;;;;;32.00;30.67;;;;;-147.14;100.00;58812.66;5042098;28;45316;-48
2024/02/13 04:47:28;;;;;;;;;36.00;30.00;;;;;-147.14;100.00;58812.66;5040853;28;45324;-44
2024/02/13 04:49:56;;;;;;;;;31.67;27.33;;;;;-147.14;100.00;58812.66;5041051;28;45529;-49
2024/02/13 04:52:22;;;;;;;;;33.00;29.33;;;;;-147.14;100.00;58812.66;5040714;28;45519;-46
2024/02/13 04:54:47;;;;;;;;;31.67;28.33;;;;;-147.14;100.00;58812.66;5057461;28;45327;-49
2024/02/13 04:57:12;;;;;;;;;38.00;33.00;;;;;-147.14;100.00;58812.66;5045145;28;45276;-48
2024/02/13 04:59:47;;;;;;;;;33.00;30.67;;;;;-147.14;100.00;58812.66;5044377;28;67342;-48
2024/02/13 05:02:21;;;;;;;;;30.67;27.00;;;;;-147.14;100.00;58812.66;5040608;28;47161;-46
2024/02/13 05:07:31;;;;;;;;;34.67;33.33;;;;;-147.14;100.00;58812.66;5052054;28;45423;-43
2024/02/13 05:10:01;;;;;;;;;33.00;29.33;;;;;-147.14;100.00;58812.66;5041208;28;45393;-49
2024/02/13 05:12:27;;;;;;;;;31.67;29.67;;;;;-147.14;100.00;58812.66;5046091;28;45352;-44
2024/02/13 05:14:52;;;;;;;;;33.67;30.00;;;;;-147.14;100.00;58812.66;5037979;28;45404;-48
2024/02/13 05:17:19;;;;;;;;;36.67;30.00;;;;;-147.14;100.00;58812.66;5039902;28;45354;-49
2024/02/13 05:19:45;;;;;;;;;41.67;34.33;;;;;-147.14;100.00;58812.66;5040914;28;45595;-45
2024/02/13 05:22:13;;;;;;;;;34.00;27.33;;;;;-147.14;100.00;58812.66;5039731;28;45467;-46
2024/02/13 05:24:39;;;;;;;;;45.67;34.00;;;;;-147.14;100.00;58812.66;5042722;28;45392;-45
2024/02/13 05:27:07;;;;;;;;;46.67;33.33;;;;;-147.14;100.00;58812.66;5048622;28;45374;-47
2024/02/13 05:29:33;;;;;;;;;38.33;32.67;;;;;-147.14;100.00;58812.66;5043800;28;45447;-48
2024/02/13 05:31:59;;;;;;;;;35.33;28.00;;;;;-147.14;100.00;58812.66;5057290;28;46298;-45
2024/02/13 05:34:25;;;;;;;;;38.33;34.00;;;;;-147.14;100.00;58812.66;5054185;28;45319;-46
2024/02/13 05:36:50;;;;;;;;;31.67;29.33;;;;;-147.14;100.00;58812.66;5041563;28;45360;-45
2024/02/13 05:39:15;;;;;;;;;33.33;28.33;;;;;-147.14;100.00;58812.66;5043493;28;45284;-45
2024/02/13 05:41:43;;;;;;;;;40.33;33.33;;;;;-147.14;100.00;58812.66;5057515;28;46278;-44
2024/02/13 05:44:08;;;;;;;;;35.67;32.67;;;;;-147.14;100.00;58812.66;5054053;28;45175;-46
2024/02/13 05:46:34;;;;;;;;;36.50;32.50;;;;;-147.14;100.00;58812.66;5040266;28;45524;-45
2024/02/13 05:49:02;;;;;;;;;40.25;35.75;;;;;-147.14;100.00;58812.66;5039610;28;66499;-44
2024/02/13 05:51:27;;;;;;;;;29.00;27.00;;;;;-147.14;100.00;58812.66;5039926;28;47023;-44
2024/02/13 05:53:52;;;;;;;;;35.33;33.00;;;;;-147.14;100.00;58812.66;5049817;28;57518;-46
2024/02/13 05:56:18;;;;;;;;;36.00;31.67;;;;;-147.14;100.00;58812.66;5032891;28;68965;-45
2024/02/13 05:58:44;;;;;;;;;33.00;28.33;;;;;-147.14;100.00;58812.66;5041147;28;45425;-44
2024/02/13 06:01:13;;;;;;;;;36.33;33.33;;;;;-147.14;100.00;58812.66;5045649;28;53708;-44
2024/02/13 06:03:39;;;;;;;;;34.00;30.00;;;;;-147.14;100.00;58812.66;5039724;28;45419;-45
2024/02/13 06:06:05;;;;;;;;;32.33;31.00;;;;;-147.14;100.00;58812.66;5024973;28;45709;-46
2024/02/13 06:08:30;;;;;;;;;34.33;27.67;;;;;-147.14;100.00;58812.66;5040106;28;45619;-46
2024/02/13 06:10:57;;;;;;;;;32.67;30.33;;;;;-147.14;100.00;58812.66;5039910;28;46173;-49
2024/02/13 06:13:23;;;;;;;;;32.67;30.67;;;;;-147.14;100.00;58812.66;5050330;28;45320;-49
2024/02/13 06:15:48;;;;;;;;;33.33;33.00;;;;;-147.14;100.00;58812.66;5047581;28;45246;-46
2024/02/13 06:18:14;;;;;;;;;35.00;29.67;;;;;-147.14;100.00;58812.66;5044318;28;45602;-48
2024/02/13 06:20:39;;;;;;;;;23.00;23.00;;;;;-147.14;100.00;58812.66;5038866;28;76667;-49
2024/02/13 06:23:05;;;;;;;;;23.67;22.00;;;;;-147.14;100.00;58812.66;5037571;28;45431;-45
2024/02/13 06:25:30;;;;;;;;;25.00;23.67;;;;;-147.14;100.00;58812.66;5046250;28;45261;-44
2024/02/13 06:27:55;;;;;;;;;25.00;25.00;;;;;-147.14;100.00;58812.66;5045274;28;70799;-43
2024/02/13 06:30:20;;;;;;;;;28.67;26.00;;;;;-147.14;100.00;58812.66;5044680;28;75722;-45
2024/02/13 06:32:46;;;;;;;;;24.67;24.67;;;;;-147.14;100.00;58812.66;5054352;28;72237;-45
2024/02/13 06:35:11;;;;;;;;;21.67;17.00;;;;;-147.14;100.00;58812.66;5040569;28;45389;-48
2024/02/13 06:37:39;;;;;;;;;21.00;18.33;;;;;-147.14;100.00;58812.66;5057063;28;45539;-44
2024/02/13 06:40:06;;;;;;;;;17.67;17.67;;;;;-147.14;100.00;58812.66;5039234;28;46160;-44
2024/02/13 06:42:31;;;;;;;;;20.67;18.00;;;;;-147.14;100.00;58812.66;5054903;28;45423;-44
2024/02/13 06:44:57;;;;;;;;;19.33;18.00;;;;;-147.14;100.00;58812.66;5049952;28;45528;-45
2024/02/13 06:47:25;;;;;;;;;24.00;19.00;;;;;-147.14;100.00;58812.66;5038889;28;70458;-45
2024/02/13 06:49:51;;;;;;;;;17.67;13.67;;;;;-147.14;100.00;58812.66;5039482;28;46275;-44
2024/02/13 06:52:16;;;;;;;;;16.33;16.00;;;;;-147.14;100.00;58812.66;5040005;28;45769;-46
2024/02/13 06:54:43;;;;;;;;;18.00;17.67;;;;;-147.14;100.00;58812.66;5053696;28;60750;-44
2024/02/13 06:57:09;;;;;;;;;17.33;13.00;;;;;-147.14;100.00;58812.66;5056955;28;45337;-44
2024/02/13 06:59:34;;;;;;;;;18.67;17.00;;;;;-147.14;100.00;58812.66;5042713;28;45823;-45
2024/02/13 07:01:59;;;;;;;;;25.00;17.00;;;;;-147.14;100.00;58812.66;5035748;28;59308;-44
2024/02/13 07:04:25;;;;;;;;;17.00;11.67;;;;;-147.14;100.00;58812.66;5042629;28;45444;-47
2024/02/13 07:06:55;;;;;;;;;15.67;14.00;;;;;-147.14;100.00;58812.66;5043961;28;45469;-45
2024/02/13 07:09:22;;;;;;;;;12.67;12.33;;;;;-147.14;100.00;58812.66;5042431;28;46051;-44
2024/02/13 07:11:48;;;;;;;;;13.33;9.33;;;;;-147.14;100.00;58812.66;5045086;28;45535;-44
2024/02/13 07:14:13;;;;;;;;;12.67;10.67;;;;;-147.14;100.00;58812.66;5052413;28;45343;-45
2024/02/13 07:16:39;;;;;;;;;8.33;8.00;;;;;-147.14;100.00;58812.66;5042575;28;70285;-45
2024/02/13 07:19:04;;;;;;;;;9.00;9.00;;;;;-147.14;100.00;58812.66;5026416;28;47203;-45
2024/02/13 07:21:33;;;;;;;;;10.00;8.00;;;;;-147.14;100.00;58812.66;5042930;28;50590;-47
2024/02/13 07:23:58;;;;;;;;;10.00;9.00;;;;;-147.14;100.00;58812.66;5043044;28;45456;-47
2024/02/13 07:26:24;;;;;;;;;9.00;9.00;;;;;-147.14;100.00;58812.66;5056159;28;46065;-47
2024/02/13 07:28:50;;;;;;;;;8.00;5.67;;;;;-147.14;100.00;58812.66;5059588;28;45478;-47
2024/02/13 07:31:19;;;;;;;;;9.33;7.00;;;;;-147.14;100.00;58812.66;5056130;28;45368;-45
2024/02/13 07:33:47;;;;;;;;;7.00;6.00;;;;;-147.14;100.00;58812.66;5059484;28;45432;-48
2024/02/13 07:36:12;;;;;;;;;7.00;6.00;;;;;-147.14;100.00;58812.66;5029639;28;45385;-47
2024/02/13 07:38:38;;;;;;;;;8.67;7.33;;;;;-147.14;100.00;58812.66;5058442;28;46203;-48
2024/02/13 07:41:06;;;;;;;;;16.00;14.00;;;;;-147.14;100.00;58812.66;5054812;28;73354;-48
2024/02/13 07:43:31;;;;;;;;;11.67;7.33;;;;;-147.14;100.00;58812.66;5058670;28;45353;-48
2024/02/13 07:45:56;;;;;;;;;10.67;10.00;;;;;-147.14;100.00;58812.66;5043081;28;69293;-47
2024/02/13 07:48:22;;;;;;;;;12.33;12.33;;;;;-147.14;100.00;58812.66;5049094;28;45935;-46
2024/02/13 07:50:48;;;;;;;;;13.33;11.67;;;;;-147.14;100.00;58812.66;5058666;28;45655;-47
2024/02/13 07:53:13;;;;;;;;;12.00;8.67;;;;;-147.14;100.00;58812.66;5041425;28;45438;-48
2024/02/13 07:55:39;;;;;;;;;12.33;9.33;;;;;-147.14;100.00;58812.66;5042099;28;45265;-46
2024/02/13 07:58:04;;;;;;;;;9.33;9.33;;;;;-147.14;100.00;58812.66;5011960;28;73293;-48
2024/02/13 08:00:31;;;;;;;;;13.67;13.00;;;;;-147.14;100.00;58812.66;5047566;28;45447;-46
2024/02/13 08:02:57;;;;;;;;;9.00;9.00;;;;;-147.14;100.00;58812.66;5051916;28;45550;-46
2024/02/13 08:05:22;;;;;;;;;12.33;11.67;;;;;-147.14;100.00;58812.66;5026807;28;45254;-47
2024/02/13 08:07:48;;;;;;;;;19.33;14.33;;;;;-147.14;100.00;58812.66;5040295;28;75717;-44
2024/02/13 08:10:13;;;;;;;;;24.67;20.33;;;;;-147.14;100.00;58812.66;5053677;28;45269;-44
2024/02/13 08:12:39;;;;;;;;;10.67;9.00;;;;;-147.14;100.00;58812.66;5048155;28;66767;-45
2024/02/13 08:15:06;;;;;;;;;9.00;7.00;;;;;-147.14;100.00;58812.66;5026712;28;45583;-45
2024/02/13 08:17:32;;;;;;;;;11.00;10.33;;;;;-147.14;100.00;58812.66;5033491;28;46888;-50
2024/02/13 08:19:59;;;;;;;;;8.00;8.00;;;;;-147.14;100.00;58812.66;5054142;28;45308;-48
2024/02/13 08:22:24;;;;;;;;;10.67;10.67;;;;;-147.14;100.00;58812.66;5033510;28;45380;-45
2024/02/13 08:24:49;;;;;;;;;13.33;11.67;;;;;-147.14;100.00;58812.66;5043425;28;45320;-48
2024/02/13 08:27:18;;;;;;;;;9.33;9.33;;;;;-147.14;100.00;58812.66;5058335;28;74546;-48
2024/02/13 08:29:46;;;;;;;;;11.67;10.00;;;;;-147.14;100.00;58812.66;5058085;28;45695;-50
2024/02/13 08:32:11;;;;;;;;;17.00;12.33;;;;;-147.14;100.00;58812.66;5058924;28;45366;-47
2024/02/13 08:34:38;;;;;;;;;17.67;13.00;;;;;-147.14;100.00;58812.66;5055221;28;45299;-48
2024/02/13 08:37:03;;;;;;;;;17.33;12.67;;;;;-147.14;100.00;58812.66;5049615;28;46117;-47
2024/02/13 08:39:29;;;;;;;;;19.00;14.00;;;;;-147.14;100.00;58812.66;5035557;28;73153;-50
2024/02/13 08:41:54;;;;;;;;;22.33;14.67;;;;;-147.14;100.00;58812.66;5040339;28;45383;-45
2024/02/13 08:44:21;;;;;;;;;8.67;8.33;;;;;-147.14;100.00;58812.66;5041184;28;45608;-49
2024/02/13 08:46:46;;;;;;;;;11.33;8.33;;;;;-147.14;100.00;58812.66;5040933;28;46995;-49
2024/02/13 08:49:11;;;;;;;;;10.00;9.67;;;;;-147.14;100.00;58812.66;5041183;28;45263;-46
2024/02/13 08:51:37;;;;;;;;;12.67;11.00;;;;;-147.14;100.00;58812.66;5040237;28;68720;-49
2024/02/13 08:54:02;;;;;;;;;11.33;10.33;;;;;-147.14;100.00;58812.66;5026314;28;65902;-48
2024/02/13 08:56:28;;;;;;;;;12.00;10.67;;;;;-147.14;100.00;58812.66;5031098;28;47187;-47
2024/02/13 08:58:53;;;;;;;;;16.67;12.33;;;;;-147.14;100.00;58812.66;5045182;28;45360;-47
2024/02/13 09:01:20;;;;;;;;;15.67;11.00;;;;;-147.14;100.00;58812.66;5048039;28;45360;-50
2024/02/13 09:03:46;;;;;;;;;14.67;12.67;;;;;-147.14;100.00;58812.66;5041503;28;45311;-46
2024/02/13 09:06:13;;;;;;;;;15.00;15.00;;;;;-147.14;100.00;58812.66;5040197;28;46836;-48
2024/02/13 09:08:41;;;;;;;;;14.00;14.00;;;;;-147.14;100.00;58812.66;5041310;28;45493;-47
2024/02/13 09:11:06;;;;;;;;;15.00;12.00;;;;;-147.14;100.00;58812.66;5040708;28;45388;-47
2024/02/13 09:13:31;;;;;;;;;16.00;12.33;;;;;-147.14;100.00;58812.66;5051567;28;45274;-47
2024/02/13 09:15:57;;;;;;;;;9.67;9.67;;;;;-147.14;100.00;58812.66;5040635;28;46014;-50
2024/02/13 09:18:23;;;;;;;;;15.67;13.67;;;;;-147.14;100.00;58812.66;5036888;28;45453;-47
2024/02/13 09:20:49;;;;;;;;;11.33;11.00;;;;;-147.14;100.00;58812.66;5039247;28;61542;-45
2024/02/13 09:23:18;;;;;;;;;11.33;11.33;;;;;-147.14;100.00;58812.66;5053507;28;45368;-49
2024/02/13 09:25:49;;;;;;;;;13.00;11.33;;;;;-147.14;100.00;58812.66;5057343;28;46443;-46
2024/02/13 09:28:14;;;;;;;;;15.33;12.67;;;;;-147.14;100.00;58812.66;5039238;28;45405;-48
2024/02/13 09:30:39;;;;;;;;;20.33;16.00;;;;;-147.14;100.00;58812.66;5057811;28;45152;-47
2024/02/13 09:33:05;;;;;;;;;12.67;12.67;;;;;-147.14;100.00;58812.66;5040271;28;68163;-46
2024/02/13 09:35:30;;;;;;;;;14.00;13.00;;;;;-147.14;100.00;58812.66;5040658;28;46170;-49
2024/02/13 09:37:55;;;;;;;;;14.33;14.33;;;;;-147.14;100.00;58812.66;5038232;28;45504;-47
2024/02/13 09:40:23;;;;;;;;;12.67;10.00;;;;;-147.14;100.00;58812.66;5038968;28;63167;-46
2024/02/13 09:42:49;;;;;;;;;13.67;11.67;;;;;-147.14;100.00;58812.66;5027233;28;63858;-44
2024/02/13 09:45:15;;;;;;;;;16.33;14.67;;;;;-147.14;100.00;58812.66;5048176;28;46226;-44
2024/02/13 09:47:41;;;;;;;;;23.33;17.00;;;;;-147.14;100.00;58812.66;5022544;28;46641;-48
2024/02/13 09:50:12;;;;;;;;;13.00;12.33;;;;;-147.14;100.00;58812.66;5040499;28;45401;-47
2024/02/13 09:52:47;;;;;;;;;16.33;14.67;;;;;-147.14;100.00;58812.66;5040366;28;45257;-46
2024/02/13 09:55:14;;;;;;;;;13.00;11.00;;;;;-147.14;100.00;58812.66;5046958;28;47143;-49
2024/02/13 09:57:40;;;;;;;;;14.00;8.33;;;;;-147.14;100.00;58812.66;5051030;28;45429;-49
2024/02/13 10:00:08;;;;;;;;;11.67;11.00;;;;;-147.14;100.00;58812.66;5043514;28;45447;-46
2024/02/13 10:02:36;;;;;;;;;13.67;12.33;;;;;-147.14;100.00;58812.66;5028736;28;45474;-50
2024/02/13 10:05:02;;;;;;;;;11.33;10.33;;;;;-147.14;100.00;58812.66;5038237;28;46184;-47
2024/02/13 10:07:27;;;;;;;;;10.33;9.33;;;;;-147.14;100.00;58812.66;5040489;28;45396;-44
2024/02/13 10:09:53;;;;;;;;;10.67;9.33;;;;;-147.14;100.00;58812.66;5041461;28;45336;-47
2024/02/13 10:12:19;;;;;;;;;10.67;8.67;;;;;-147.14;100.00;58812.66;5044812;28;45315;-45
2024/02/13 10:14:44;;;;;;;;;9.33;7.33;;;;;-147.14;100.00;58812.66;5028261;28;64138;-47
2024/02/13 10:17:14;;;;;;;;;12.00;12.00;;;;;-147.14;100.00;58812.66;5039205;28;71163;-45
2024/02/13 10:19:39;;;;;;;;;9.00;9.00;;;;;-147.14;100.00;58812.66;5042248;28;45396;-49
2024/02/13 10:22:06;;;;;;;;;8.00;8.00;;;;;-147.14;100.00;58812.66;5040730;28;45221;-46
2024/02/13 10:24:31;;;;;;;;;7.33;7.33;;;;;-147.14;100.00;58812.66;5040270;28;45588;-49
2024/02/13 10:26:59;;;;;;;;;9.00;9.00;;;;;-147.14;100.00;58812.66;5039528;28;72413;-49
2024/02/13 10:29:24;;;;;;;;;7.00;6.00;;;;;-147.14;100.00;58812.66;5050937;28;45321;-46
2024/02/13 10:31:50;;;;;;;;;10.67;10.67;;;;;-147.14;100.00;58812.66;5056028;28;45623;-49
2024/02/13 10:34:15;;;;;;;;;8.00;8.00;;;;;-147.14;100.00;58812.66;5056522;28;46153;-49
2024/02/13 10:36:44;;;;;;;;;9.00;7.00;;;;;-147.14;100.00;58812.66;5056362;28;45377;-48
2024/02/13 10:39:11;;;;;;;;;7.33;6.33;;;;;-147.14;100.00;58812.66;5039106;28;45316;-47
2024/02/13 10:41:39;;;;;;;;;11.33;10.67;;;;;-147.14;100.00;58812.66;5039510;28;45315;-48
2024/02/13 10:44:07;;;;;;;;;7.33;6.00;;;;;-147.14;100.00;58812.66;5056346;28;45538;-46
2024/02/13 10:46:39;;;;;;;;;9.67;7.00;;;;;-147.14;100.00;58812.66;5021542;28;45393;-46
2024/02/13 10:49:25;;;;;;;;;16.67;13.00;;;;;-147.14;100.00;58812.66;5040671;28;45391;-47
2024/02/13 10:51:53;;;;;;;;;6.00;6.00;;;;;-147.14;100.00;58812.66;5049183;28;45401;-46
2024/02/13 10:54:20;;;;;;;;;10.67;9.00;;;;;-147.14;100.00;58812.66;5046470;28;46279;-49